KEDE/EDE METAR and TAF weather

Enter ICAO airport designator
Station Type Date Time Source
KEDE METAR 2018/12/10 20:25 UTC NOAA

KEDE 102025Z AUTO 36008KT 10SM OVC016 05/03 A3005 RMK AO2 T00460030


Station Type Date Time Source
KEDE Decoded METAR 2018/12/10 20:25 UTC NOAA

Edenton, Northeastern Regional Airport, NC, United States (KEDE) 36-01-40N 076-34-02W
Dec 10, 2018 - 03:25 PM EST / 2018.12.10 2025 UTC
Wind: from the N (360 degrees) at 9 MPH (8 KT):0
Visibility: 10 mile(s):0
Sky conditions: overcast
Temperature: 40.3 F (4.6 C)
Dew Point: 37.4 F (3.0 C)
Relative Humidity: 89%
Pressure (altimeter): 30.05 in. Hg (1017 hPa)
ob: KEDE 102025Z AUTO 36008KT 10SM OVC016 05/03 A3005 RMK AO2 T00460030
cycle: 20

Station Type Date Time Source
KEDE TAF UTC NOAA

Error!


Example: see airport list